Sider Lijun C — 2CTU4 — position and weather

sailwx.info

Track history (hours):
 
Tides and Currents Weather Stations Pressure Air Temp Water Temp Dewpoint Dewpoint Depression Visibility Wind Speed Wind Dir Waves Ship Positions

Sider Lijun C

Last reported at 2018-Mar-22 10:16 UTC. Time now 2018-May-27 21:32 UTC.
Position N 43°32' W 001°30'.
Warning: this ship's position is months out of date.

Length 108 m; draft 3.9 m.

Type: Cargo ship. MMSI: 235075699.

Date/timePositionNaut miles runAvg speedWind from/ knotsBaromVisibWave heightAir tempDewpointWater temp
2018-Mar-22 10:16N 43°32' W 001°30'0 0.0
2018-Mar-22 09:58N 43°32' W 001°30'0 0.0
2018-Mar-22 09:28N 43°32' W 001°30'0 0.0
2018-Mar-22 08:58N 43°32' W 001°30'1 1.2
2018-Mar-22 08:29N 43°32' W 001°31'3 6.3
2018-Mar-22 07:57N 43°32' W 001°35'511.3
2018-Mar-22 07:30N 43°33' W 001°42'4 8.2
2018-Mar-22 07:00N 43°33' W 001°48'10 8.6
2018-Mar-22 05:51N 43°33' W 002°01'3 8.6
2018-Mar-22 05:30N 43°33' W 002°06'4 9.1
2018-Mar-22 05:01N 43°33' W 002°12'5 8.9
2018-Mar-22 04:30N 43°33' W 002°18'5 9.2
2018-Mar-22 03:59N 43°34' W 002°25'4 8.7
2018-Mar-22 03:30N 43°34' W 002°30'4 8.6
2018-Mar-22 03:00N 43°34' W 002°36'10610.4
2018-Mar-21 16:52N 43°36' W 005°02'411.0
2018-Mar-21 16:28N 43°36' W 005°08'511.1
2018-Mar-21 15:59N 43°35' W 005°15'511.4
2018-Mar-21 15:30N 43°35' W 005°23'611.0
2018-Mar-21 14:56N 43°35' W 005°32'510.8
2018-Mar-21 14:30N 43°35' W 005°38'2 0.3
2018-Mar-21 06:42N 43°35' W 005°41'0 0.4
2018-Mar-21 06:30N 43°35' W 005°41'2 3.4
2018-Mar-21 06:00N 43°36' W 005°40'3 6.3
2018-Mar-21 05:30N 43°39' W 005°43'4 7.2
2018-Mar-21 05:00N 43°42' W 005°46'5 8.2
2018-Mar-21 04:26N 43°43' W 005°52'4 9.0
2018-Mar-21 03:56N 43°43' W 005°58'4 9.2
2018-Mar-21 03:27N 43°43' W 006°04'4 9.3
2018-Mar-21 03:00N 43°44' W 006°10'  
2018-Mar-18 18:23N 43°47' W 006°09'4 9.4
2018-Mar-18 17:58N 43°46' W 006°04'4 9.2
2018-Mar-18 17:30N 43°46' W 005°58'20 8.8
2018-Mar-18 15:15N 43°44' W 005°30'2 8.3
2018-Mar-18 14:58N 43°44' W 005°27'4 8.0
2018-Mar-18 14:26N 43°44' W 005°21'3 8.1
2018-Mar-18 14:00N 43°43' W 005°16'4 8.1
2018-Mar-18 13:30N 43°43' W 005°11'4 8.4
2018-Mar-18 13:00N 43°43' W 005°05'5 8.4
2018-Mar-18 12:24N 43°42' W 004°58'84 7.6
2018-Mar-18 01:26N 43°36' W 003°03'8 8.1
2018-Mar-18 00:24N 43°35' W 002°51'3 7.9
2018-Mar-18 00:00N 43°35' W 002°47'5 7.7
2018-Mar-17 23:25N 43°34' W 002°41'3 7.6
2018-Mar-17 23:00N 43°34' W 002°36'4 7.7
2018-Mar-17 22:29N 43°34' W 002°31'4 7.5
2018-Mar-17 22:00N 43°34' W 002°26'4 7.3
2018-Mar-17 21:30N 43°34' W 002°21'4 8.1
2018-Mar-17 21:00N 43°34' W 002°15'5 7.8
2018-Mar-17 20:21N 43°33' W 002°08'3 8.3
2018-Mar-17 19:59N 43°33' W 002°04'4 8.3
2018-Mar-17 19:30N 43°33' W 001°59'4 8.4
2018-Mar-17 19:00N 43°32' W 001°53'4 8.3
2018-Mar-17 18:29N 43°33' W 001°47'4 8.4
2018-Mar-17 18:01N 43°33' W 001°41'4 8.5
2018-Mar-17 17:30N 43°32' W 001°36'4 7.5
2018-Mar-17 16:59N 43°32' W 001°30'0 0.3
2018-Mar-17 16:03N 43°32' W 001°30'0 0.0
2018-Mar-17 15:57N 43°32' W 001°30'0 0.0
2018-Mar-17 15:27N 43°32' W 001°30'0 0.0
2018-Mar-17 14:39N 43°32' W 001°30'0 0.0
2018-Mar-17 14:27N 43°32' W 001°30'0 0.0
2018-Mar-17 13:57N 43°32' W 001°30'0 0.0
2018-Mar-17 13:27N 43°32' W 001°30'0 0.0
2018-Mar-17 12:51N 43°32' W 001°30'0 0.0
2018-Mar-17 12:27N 43°32' W 001°30'0 0.0
2018-Mar-17 11:57N 43°32' W 001°30'0 0.0
2018-Mar-17 11:27N 43°32' W 001°30'0 0.0
2018-Mar-17 10:57N 43°32' W 001°30'0 0.0
2018-Mar-17 10:21N 43°32' W 001°30'0 0.0
2018-Mar-17 09:57N 43°32' W 001°30'0 0.0
2018-Mar-17 08:39N 43°32' W 001°30'0 0.0
2018-Mar-17 08:09N 43°32' W 001°30'0 0.0
2018-Mar-17 07:57N 43°32' W 001°30'0 0.0
2018-Mar-17 07:27N 43°32' W 001°30'0 0.0
2018-Mar-17 06:57N 43°32' W 001°30'0 0.0
2018-Mar-17 06:27N 43°32' W 001°30'0 0.0
2018-Mar-17 05:57N 43°32' W 001°30'0 0.0
2018-Mar-17 05:27N 43°32' W 001°30'0 0.0
2018-Mar-17 04:54N 43°32' W 001°30'0 1.1
2018-Mar-17 04:28N 43°32' W 001°31'3 5.8
2018-Mar-17 04:00N 43°33' W 001°34'4 8.9
2018-Mar-17 03:30N 43°33' W 001°40'4 8.8
2018-Mar-17 03:00N 43°33' W 001°47'9 9.2
2018-Mar-17 02:00N 43°33' W 001°59'5 9.7
2018-Mar-17 01:30N 43°33' W 002°06'5 9.7
2018-Mar-17 01:00N 43°33' W 002°12'5 9.7
2018-Mar-17 00:30N 43°34' W 002°19'510.5
2018-Mar-17 00:00N 43°34' W 002°26'510.9
2018-Mar-16 23:30N 43°34' W 002°34'510.8
2018-Mar-16 23:00N 43°34' W 002°41'11411.3
2018-Mar-16 12:52N 43°44' W 005°18'411.8
2018-Mar-16 12:30N 43°44' W 005°24'35 0.8
2018-Mar-14 17:00N 43°48' W 006°12'7 7.8
2018-Mar-14 16:07N 43°48' W 006°02'1 7.9
2018-Mar-14 15:59N 43°48' W 006°01'6 8.2
2018-Mar-14 15:17N 43°46' W 005°53'2 8.6
2018-Mar-14 15:00N 43°46' W 005°50'4 8.4
2018-Mar-14 14:29N 43°45' W 005°44'4 8.8
2018-Mar-14 14:00N 43°45' W 005°38'4 8.8
2018-Mar-14 13:30N 43°45' W 005°32'5 9.6
2018-Mar-14 12:59N 43°44' W 005°25'510.3
2018-Mar-14 12:30N 43°44' W 005°19'510.4
2018-Mar-14 12:00N 43°43' W 005°11'910.4
2018-Mar-14 11:06N 43°43' W 004°58'110.3
2018-Mar-14 11:00N 43°43' W 004°57'8310.0
2018-Mar-14 02:42N 43°36' W 003°03'8 9.8
2018-Mar-14 01:55N 43°35' W 002°53'4 9.9
2018-Mar-14 01:30N 43°35' W 002°47'510.0
2018-Mar-14 01:00N 43°34' W 002°40'510.1
2018-Mar-14 00:30N 43°34' W 002°33'5 9.9
2018-Mar-14 00:00N 43°34' W 002°26'510.0
2018-Mar-13 23:31N 43°33' W 002°19'5 9.8
2018-Mar-13 23:00N 43°33' W 002°13'5 9.7
2018-Mar-13 22:30N 43°33' W 002°06'5 9.5
2018-Mar-13 22:00N 43°32' W 001°60'5 9.5
2018-Mar-13 21:30N 43°32' W 001°53'5 9.3
2018-Mar-13 20:58N 43°33' W 001°46'4 9.5
2018-Mar-13 20:30N 43°33' W 001°40'5 9.1
2018-Mar-13 20:00N 43°32' W 001°34'3 0.6
2018-Mar-13 15:26N 43°32' W 001°30'0 0.0
2018-Mar-13 14:56N 43°32' W 001°30'0 0.0
2018-Mar-13 13:44N 43°32' W 001°30'0 0.0
2018-Mar-13 13:20N 43°32' W 001°30'0 0.0
2018-Mar-13 12:50N 43°32' W 001°30'0 0.0
2018-Mar-13 12:14N 43°32' W 001°30'0 0.0
2018-Mar-13 11:56N 43°32' W 001°30'0 0.0
2018-Mar-13 11:26N 43°32' W 001°30'0 0.0
2018-Mar-13 10:56N 43°32' W 001°30'0 0.0
2018-Mar-13 10:26N 43°32' W 001°30'0 0.0
2018-Mar-13 09:56N 43°32' W 001°30'0 0.0
2018-Mar-13 09:14N 43°32' W 001°30'0 0.0
2018-Mar-13 08:32N 43°32' W 001°30'0 0.0
2018-Mar-13 08:26N 43°32' W 001°30'0 0.0
2018-Mar-13 07:38N 43°32' W 001°30'0 0.0
2018-Mar-13 07:26N 43°32' W 001°30'0 0.0
2018-Mar-13 06:50N 43°32' W 001°30'0 0.0
2018-Mar-13 06:26N 43°32' W 001°30'0 0.0
2018-Mar-13 05:56N 43°32' W 001°30'0 0.0
2018-Mar-13 05:20N 43°32' W 001°30'0 0.0
2018-Mar-13 04:56N 43°32' W 001°30'0 0.0
2018-Mar-13 04:26N 43°32' W 001°30'0 0.0
2018-Mar-13 03:50N 43°32' W 001°30'0 0.0
2018-Mar-13 03:26N 43°32' W 001°30'0 0.0
2018-Mar-13 02:50N 43°32' W 001°30'0 0.0
2018-Mar-13 02:20N 43°32' W 001°30'0 0.0
2018-Mar-13 01:50N 43°32' W 001°30'0 0.0
2018-Mar-13 01:26N 43°32' W 001°30'0 0.0
2018-Mar-13 00:56N 43°32' W 001°30'0 0.0
2018-Mar-13 00:20N 43°32' W 001°30'0 0.0
2018-Mar-12 23:56N 43°32' W 001°30'0 0.0
2018-Mar-12 23:26N 43°32' W 001°30'0 0.0
2018-Mar-12 22:50N 43°32' W 001°30'0 0.0
2018-Mar-12 22:26N 43°32' W 001°30'0 0.0
2018-Mar-12 21:56N 43°32' W 001°30'0 0.0
2018-Mar-12 21:26N 43°32' W 001°30'0 0.0
2018-Mar-12 20:56N 43°32' W 001°30'0 0.0
2018-Mar-12 20:26N 43°32' W 001°30'0 0.0
2018-Mar-12 19:56N 43°32' W 001°30'0 0.0
2018-Mar-12 19:26N 43°32' W 001°30'0 0.0
2018-Mar-12 18:56N 43°32' W 001°30'0 0.0
2018-Mar-12 18:20N 43°32' W 001°30'0 0.0
2018-Mar-12 17:56N 43°32' W 001°30'0 0.0
2018-Mar-12 17:14N 43°32' W 001°30'0 0.0
2018-Mar-12 16:41N 43°32' W 001°30'0 0.0
2018-Mar-12 16:14N 43°32' W 001°30'0 0.0
2018-Mar-12 15:44N 43°32' W 001°30'0 0.0
2018-Mar-12 15:26N 43°32' W 001°30'0 0.0
2018-Mar-12 14:56N 43°32' W 001°30'0 0.0
2018-Mar-12 14:14N 43°32' W 001°30'0 0.0
2018-Mar-12 13:56N 43°32' W 001°30'0 0.0
2018-Mar-12 13:26N 43°32' W 001°30'0 0.0
2018-Mar-12 12:56N 43°32' W 001°30'0 0.0
2018-Mar-12 12:26N 43°32' W 001°30'0 0.0
2018-Mar-12 11:56N 43°32' W 001°30'0 0.0
2018-Mar-12 11:26N 43°32' W 001°30'0 0.0
2018-Mar-12 10:56N 43°32' W 001°30'0 0.0
2018-Mar-12 10:26N 43°32' W 001°30'  
Track history (hours):
 
Tides and Currents Weather Stations Pressure Air Temp Water Temp Dewpoint Dewpoint Depression Visibility Wind Speed Wind Dir Waves Ship Positions

Sider Lijun C

Last reported at 2018-Mar-22 10:16 UTC. Time now 2018-May-27 21:32 UTC.
Position N 43°32' W 001°30'.
Warning: this ship's position is months out of date.

Length 108 m; draft 3.9 m.

Type: Cargo ship. MMSI: 235075699.

Date/timePositionNaut miles runAvg speedWind from/ knotsBaromVisibWave heightAir tempDewpointWater temp
2018-Mar-22 10:16N 43°32' W 001°30'0 0.0
2018-Mar-22 09:58N 43°32' W 001°30'0 0.0
2018-Mar-22 09:28N 43°32' W 001°30'0 0.0
2018-Mar-22 08:58N 43°32' W 001°30'1 1.2
2018-Mar-22 08:29N 43°32' W 001°31'3 6.3
2018-Mar-22 07:57N 43°32' W 001°35'511.3
2018-Mar-22 07:30N 43°33' W 001°42'4 8.2
2018-Mar-22 07:00N 43°33' W 001°48'10 8.6
2018-Mar-22 05:51N 43°33' W 002°01'3 8.6
2018-Mar-22 05:30N 43°33' W 002°06'4 9.1
2018-Mar-22 05:01N 43°33' W 002°12'5 8.9
2018-Mar-22 04:30N 43°33' W 002°18'5 9.2
2018-Mar-22 03:59N 43°34' W 002°25'4 8.7
2018-Mar-22 03:30N 43°34' W 002°30'4 8.6
2018-Mar-22 03:00N 43°34' W 002°36'10610.4
2018-Mar-21 16:52N 43°36' W 005°02'411.0
2018-Mar-21 16:28N 43°36' W 005°08'511.1
2018-Mar-21 15:59N 43°35' W 005°15'511.4
2018-Mar-21 15:30N 43°35' W 005°23'611.0
2018-Mar-21 14:56N 43°35' W 005°32'510.8
2018-Mar-21 14:30N 43°35' W 005°38'2 0.3
2018-Mar-21 06:42N 43°35' W 005°41'0 0.4
2018-Mar-21 06:30N 43°35' W 005°41'2 3.4
2018-Mar-21 06:00N 43°36' W 005°40'3 6.3
2018-Mar-21 05:30N 43°39' W 005°43'4 7.2
2018-Mar-21 05:00N 43°42' W 005°46'5 8.2
2018-Mar-21 04:26N 43°43' W 005°52'4 9.0
2018-Mar-21 03:56N 43°43' W 005°58'4 9.2
2018-Mar-21 03:27N 43°43' W 006°04'4 9.3
2018-Mar-21 03:00N 43°44' W 006°10'  
2018-Mar-18 18:23N 43°47' W 006°09'4 9.4
2018-Mar-18 17:58N 43°46' W 006°04'4 9.2
2018-Mar-18 17:30N 43°46' W 005°58'20 8.8
2018-Mar-18 15:15N 43°44' W 005°30'2 8.3
2018-Mar-18 14:58N 43°44' W 005°27'4 8.0
2018-Mar-18 14:26N 43°44' W 005°21'3 8.1
2018-Mar-18 14:00N 43°43' W 005°16'4 8.1
2018-Mar-18 13:30N 43°43' W 005°11'4 8.4
2018-Mar-18 13:00N 43°43' W 005°05'5 8.4
2018-Mar-18 12:24N 43°42' W 004°58'84 7.6
2018-Mar-18 01:26N 43°36' W 003°03'8 8.1
2018-Mar-18 00:24N 43°35' W 002°51'3 7.9
2018-Mar-18 00:00N 43°35' W 002°47'5 7.7
2018-Mar-17 23:25N 43°34' W 002°41'3 7.6
2018-Mar-17 23:00N 43°34' W 002°36'4 7.7
2018-Mar-17 22:29N 43°34' W 002°31'4 7.5
2018-Mar-17 22:00N 43°34' W 002°26'4 7.3
2018-Mar-17 21:30N 43°34' W 002°21'4 8.1
2018-Mar-17 21:00N 43°34' W 002°15'5 7.8
2018-Mar-17 20:21N 43°33' W 002°08'3 8.3
2018-Mar-17 19:59N 43°33' W 002°04'4 8.3
2018-Mar-17 19:30N 43°33' W 001°59'4 8.4
2018-Mar-17 19:00N 43°32' W 001°53'4 8.3
2018-Mar-17 18:29N 43°33' W 001°47'4 8.4
2018-Mar-17 18:01N 43°33' W 001°41'4 8.5
2018-Mar-17 17:30N 43°32' W 001°36'4 7.5
2018-Mar-17 16:59N 43°32' W 001°30'0 0.3
2018-Mar-17 16:03N 43°32' W 001°30'0 0.0
2018-Mar-17 15:57N 43°32' W 001°30'0 0.0
2018-Mar-17 15:27N 43°32' W 001°30'0 0.0
2018-Mar-17 14:39N 43°32' W 001°30'0 0.0
2018-Mar-17 14:27N 43°32' W 001°30'0 0.0
2018-Mar-17 13:57N 43°32' W 001°30'0 0.0
2018-Mar-17 13:27N 43°32' W 001°30'0 0.0
2018-Mar-17 12:51N 43°32' W 001°30'0 0.0
2018-Mar-17 12:27N 43°32' W 001°30'0 0.0
2018-Mar-17 11:57N 43°32' W 001°30'0 0.0
2018-Mar-17 11:27N 43°32' W 001°30'0 0.0
2018-Mar-17 10:57N 43°32' W 001°30'0 0.0
2018-Mar-17 10:21N 43°32' W 001°30'0 0.0
2018-Mar-17 09:57N 43°32' W 001°30'0 0.0
2018-Mar-17 08:39N 43°32' W 001°30'0 0.0
2018-Mar-17 08:09N 43°32' W 001°30'0 0.0
2018-Mar-17 07:57N 43°32' W 001°30'0 0.0
2018-Mar-17 07:27N 43°32' W 001°30'0 0.0
2018-Mar-17 06:57N 43°32' W 001°30'0 0.0
2018-Mar-17 06:27N 43°32' W 001°30'0 0.0
2018-Mar-17 05:57N 43°32' W 001°30'0 0.0
2018-Mar-17 05:27N 43°32' W 001°30'0 0.0
2018-Mar-17 04:54N 43°32' W 001°30'0 1.1
2018-Mar-17 04:28N 43°32' W 001°31'3 5.8
2018-Mar-17 04:00N 43°33' W 001°34'4 8.9
2018-Mar-17 03:30N 43°33' W 001°40'4 8.8
2018-Mar-17 03:00N 43°33' W 001°47'9 9.2
2018-Mar-17 02:00N 43°33' W 001°59'5 9.7
2018-Mar-17 01:30N 43°33' W 002°06'5 9.7
2018-Mar-17 01:00N 43°33' W 002°12'5 9.7
2018-Mar-17 00:30N 43°34' W 002°19'510.5
2018-Mar-17 00:00N 43°34' W 002°26'510.9
2018-Mar-16 23:30N 43°34' W 002°34'510.8
2018-Mar-16 23:00N 43°34' W 002°41'11411.3
2018-Mar-16 12:52N 43°44' W 005°18'411.8
2018-Mar-16 12:30N 43°44' W 005°24'35 0.8
2018-Mar-14 17:00N 43°48' W 006°12'7 7.8
2018-Mar-14 16:07N 43°48' W 006°02'1 7.9
2018-Mar-14 15:59N 43°48' W 006°01'6 8.2
2018-Mar-14 15:17N 43°46' W 005°53'2 8.6
2018-Mar-14 15:00N 43°46' W 005°50'4 8.4
2018-Mar-14 14:29N 43°45' W 005°44'4 8.8
2018-Mar-14 14:00N 43°45' W 005°38'4 8.8
2018-Mar-14 13:30N 43°45' W 005°32'5 9.6
2018-Mar-14 12:59N 43°44' W 005°25'510.3
2018-Mar-14 12:30N 43°44' W 005°19'510.4
2018-Mar-14 12:00N 43°43' W 005°11'910.4
2018-Mar-14 11:06N 43°43' W 004°58'110.3
2018-Mar-14 11:00N 43°43' W 004°57'8310.0
2018-Mar-14 02:42N 43°36' W 003°03'8 9.8
2018-Mar-14 01:55N 43°35' W 002°53'4 9.9
2018-Mar-14 01:30N 43°35' W 002°47'510.0
2018-Mar-14 01:00N 43°34' W 002°40'510.1
2018-Mar-14 00:30N 43°34' W 002°33'5 9.9
2018-Mar-14 00:00N 43°34' W 002°26'510.0
2018-Mar-13 23:31N 43°33' W 002°19'5 9.8
2018-Mar-13 23:00N 43°33' W 002°13'5 9.7
2018-Mar-13 22:30N 43°33' W 002°06'5 9.5
2018-Mar-13 22:00N 43°32' W 001°60'5 9.5
2018-Mar-13 21:30N 43°32' W 001°53'5 9.3
2018-Mar-13 20:58N 43°33' W 001°46'4 9.5
2018-Mar-13 20:30N 43°33' W 001°40'5 9.1
2018-Mar-13 20:00N 43°32' W 001°34'3 0.6
2018-Mar-13 15:26N 43°32' W 001°30'0 0.0
2018-Mar-13 14:56N 43°32' W 001°30'0 0.0
2018-Mar-13 13:44N 43°32' W 001°30'0 0.0
2018-Mar-13 13:20N 43°32' W 001°30'0 0.0
2018-Mar-13 12:50N 43°32' W 001°30'0 0.0
2018-Mar-13 12:14N 43°32' W 001°30'0 0.0
2018-Mar-13 11:56N 43°32' W 001°30'0 0.0
2018-Mar-13 11:26N 43°32' W 001°30'0 0.0
2018-Mar-13 10:56N 43°32' W 001°30'0 0.0
2018-Mar-13 10:26N 43°32' W 001°30'0 0.0
2018-Mar-13 09:56N 43°32' W 001°30'0 0.0
2018-Mar-13 09:14N 43°32' W 001°30'0 0.0
2018-Mar-13 08:32N 43°32' W 001°30'0 0.0
2018-Mar-13 08:26N 43°32' W 001°30'0 0.0
2018-Mar-13 07:38N 43°32' W 001°30'0 0.0
2018-Mar-13 07:26N 43°32' W 001°30'0 0.0
2018-Mar-13 06:50N 43°32' W 001°30'0 0.0
2018-Mar-13 06:26N 43°32' W 001°30'0 0.0
2018-Mar-13 05:56N 43°32' W 001°30'0 0.0
2018-Mar-13 05:20N 43°32' W 001°30'0 0.0
2018-Mar-13 04:56N 43°32' W 001°30'0 0.0
2018-Mar-13 04:26N 43°32' W 001°30'0 0.0
2018-Mar-13 03:50N 43°32' W 001°30'0 0.0
2018-Mar-13 03:26N 43°32' W 001°30'0 0.0
2018-Mar-13 02:50N 43°32' W 001°30'0 0.0
2018-Mar-13 02:20N 43°32' W 001°30'0 0.0
2018-Mar-13 01:50N 43°32' W 001°30'0 0.0
2018-Mar-13 01:26N 43°32' W 001°30'0 0.0
2018-Mar-13 00:56N 43°32' W 001°30'0 0.0
2018-Mar-13 00:20N 43°32' W 001°30'0 0.0
2018-Mar-12 23:56N 43°32' W 001°30'0 0.0
2018-Mar-12 23:26N 43°32' W 001°30'0 0.0
2018-Mar-12 22:50N 43°32' W 001°30'0 0.0
2018-Mar-12 22:26N 43°32' W 001°30'0 0.0
2018-Mar-12 21:56N 43°32' W 001°30'0 0.0
2018-Mar-12 21:26N 43°32' W 001°30'0 0.0
2018-Mar-12 20:56N 43°32' W 001°30'0 0.0
2018-Mar-12 20:26N 43°32' W 001°30'0 0.0
2018-Mar-12 19:56N 43°32' W 001°30'0 0.0
2018-Mar-12 19:26N 43°32' W 001°30'0 0.0
2018-Mar-12 18:56N 43°32' W 001°30'0 0.0
2018-Mar-12 18:20N 43°32' W 001°30'0 0.0
2018-Mar-12 17:56N 43°32' W 001°30'0 0.0
2018-Mar-12 17:14N 43°32' W 001°30'0 0.0
2018-Mar-12 16:41N 43°32' W 001°30'0 0.0
2018-Mar-12 16:14N 43°32' W 001°30'0 0.0
2018-Mar-12 15:44N 43°32' W 001°30'0 0.0
2018-Mar-12 15:26N 43°32' W 001°30'0 0.0
2018-Mar-12 14:56N 43°32' W 001°30'0 0.0
2018-Mar-12 14:14N 43°32' W 001°30'0 0.0
2018-Mar-12 13:56N 43°32' W 001°30'0 0.0
2018-Mar-12 13:26N 43°32' W 001°30'0 0.0
2018-Mar-12 12:56N 43°32' W 001°30'0 0.0
2018-Mar-12 12:26N 43°32' W 001°30'0 0.0
2018-Mar-12 11:56N 43°32' W 001°30'0 0.0
2018-Mar-12 11:26N 43°32' W 001°30'0 0.0
2018-Mar-12 10:56N 43°32' W 001°30'0 0.0
2018-Mar-12 10:26N 43°32' W 001°30'  

Dump ship's entire track history